sensor_id;sensor_type;location;lat;lon;timestamp;P1;durP1;ratioP1;P2;durP2;ratioP2
11620;SDS011;5866;49.094;11.900;2024-01-15T00:01:51;67.87;;;60.60;;
11620;SDS011;5866;49.094;11.900;2024-01-15T00:04:20;59.07;;;41.67;;
11620;SDS011;5866;49.094;11.900;2024-01-15T00:06:48;45.33;;;39.57;;
11620;SDS011;5866;49.094;11.900;2024-01-15T00:09:16;34.70;;;27.07;;
11620;SDS011;5866;49.094;11.900;2024-01-15T00:11:44;35.77;;;26.03;;
11620;SDS011;5866;49.094;11.900;2024-01-15T00:14:12;37.50;;;22.80;;
11620;SDS011;5866;49.094;11.900;2024-01-15T00:16:41;38.90;;;34.87;;
11620;SDS011;5866;49.094;11.900;2024-01-15T00:19:08;33.83;;;25.87;;
11620;SDS011;5866;49.094;11.900;2024-01-15T00:21:37;41.70;;;27.70;;
11620;SDS011;5866;49.094;11.900;2024-01-15T00:24:05;58.63;;;53.03;;
11620;SDS011;5866;49.094;11.900;2024-01-15T00:26:32;39.60;;;25.47;;
11620;SDS011;5866;49.094;11.900;2024-01-15T00:29:00;101.97;;;93.03;;
11620;SDS011;5866;49.094;11.900;2024-01-15T00:31:29;75.83;;;69.17;;
11620;SDS011;5866;49.094;11.900;2024-01-15T00:33:57;95.27;;;86.50;;
11620;SDS011;5866;49.094;11.900;2024-01-15T00:36:25;141.03;;;130.23;;
11620;SDS011;5866;49.094;11.900;2024-01-15T00:38:54;75.53;;;69.27;;
11620;SDS011;5866;49.094;11.900;2024-01-15T00:41:22;70.03;;;63.57;;
11620;SDS011;5866;49.094;11.900;2024-01-15T00:43:49;233.00;;;212.37;;
11620;SDS011;5866;49.094;11.900;2024-01-15T00:46:17;139.73;;;129.07;;
11620;SDS011;5866;49.094;11.900;2024-01-15T00:48:44;79.13;;;72.03;;
11620;SDS011;5866;49.094;11.900;2024-01-15T00:51:13;91.10;;;82.50;;
11620;SDS011;5866;49.094;11.900;2024-01-15T00:53:41;103.27;;;94.50;;
11620;SDS011;5866;49.094;11.900;2024-01-15T00:56:10;49.43;;;26.57;;
11620;SDS011;5866;49.094;11.900;2024-01-15T00:58:37;111.90;;;101.70;;
11620;SDS011;5866;49.094;11.900;2024-01-15T01:01:05;106.30;;;96.07;;
11620;SDS011;5866;49.094;11.900;2024-01-15T01:03:32;85.83;;;78.50;;
11620;SDS011;5866;49.094;11.900;2024-01-15T01:06:00;134.20;;;122.63;;
11620;SDS011;5866;49.094;11.900;2024-01-15T01:08:28;294.90;;;270.37;;
11620;SDS011;5866;49.094;11.900;2024-01-15T01:10:55;79.60;;;71.70;;
11620;SDS011;5866;49.094;11.900;2024-01-15T01:13:24;57.90;;;51.97;;
11620;SDS011;5866;49.094;11.900;2024-01-15T01:15:52;209.90;;;192.27;;
11620;SDS011;5866;49.094;11.900;2024-01-15T01:18:19;43.57;;;32.97;;
11620;SDS011;5866;49.094;11.900;2024-01-15T01:20:47;186.63;;;170.87;;
11620;SDS011;5866;49.094;11.900;2024-01-15T01:23:15;88.23;;;80.00;;
11620;SDS011;5866;49.094;11.900;2024-01-15T01:25:42;81.77;;;74.53;;
11620;SDS011;5866;49.094;11.900;2024-01-15T01:28:10;48.90;;;41.47;;
11620;SDS011;5866;49.094;11.900;2024-01-15T01:30:39;116.60;;;106.37;;
11620;SDS011;5866;49.094;11.900;2024-01-15T01:33:06;40.27;;;23.53;;
11620;SDS011;5866;49.094;11.900;2024-01-15T01:35:34;154.50;;;141.37;;
11620;SDS011;5866;49.094;11.900;2024-01-15T01:38:02;59.03;;;52.93;;
11620;SDS011;5866;49.094;11.900;2024-01-15T01:40:30;55.50;;;50.33;;
11620;SDS011;5866;49.094;11.900;2024-01-15T01:42:57;110.63;;;101.70;;
11620;SDS011;5866;49.094;11.900;2024-01-15T01:45:25;36.50;;;30.00;;
11620;SDS011;5866;49.094;11.900;2024-01-15T01:47:54;42.40;;;24.53;;
11620;SDS011;5866;49.094;11.900;2024-01-15T01:50:22;37.37;;;23.03;;
11620;SDS011;5866;49.094;11.900;2024-01-15T01:52:50;42.00;;;26.73;;
11620;SDS011;5866;49.094;11.900;2024-01-15T01:55:17;36.13;;;25.10;;
11620;SDS011;5866;49.094;11.900;2024-01-15T01:57:46;133.17;;;122.33;;
11620;SDS011;5866;49.094;11.900;2024-01-15T02:00:14;33.50;;;23.50;;
11620;SDS011;5866;49.094;11.900;2024-01-15T02:02:42;37.93;;;26.83;;
11620;SDS011;5866;49.094;11.900;2024-01-15T02:05:11;38.73;;;29.53;;
11620;SDS011;5866;49.094;11.900;2024-01-15T02:07:41;40.43;;;27.13;;
11620;SDS011;5866;49.094;11.900;2024-01-15T02:10:09;46.60;;;41.80;;
11620;SDS011;5866;49.094;11.900;2024-01-15T02:12:36;46.97;;;27.87;;
11620;SDS011;5866;49.094;11.900;2024-01-15T02:15:04;37.47;;;25.07;;
11620;SDS011;5866;49.094;11.900;2024-01-15T02:17:32;33.90;;;30.33;;
11620;SDS011;5866;49.094;11.900;2024-01-15T02:20:00;43.97;;;37.43;;
11620;SDS011;5866;49.094;11.900;2024-01-15T02:22:29;40.53;;;25.30;;
11620;SDS011;5866;49.094;11.900;2024-01-15T02:24:58;46.90;;;30.30;;
11620;SDS011;5866;49.094;11.900;2024-01-15T02:27:26;35.10;;;27.60;;
11620;SDS011;5866;49.094;11.900;2024-01-15T02:29:54;34.40;;;25.60;;
11620;SDS011;5866;49.094;11.900;2024-01-15T02:32:22;39.77;;;32.13;;
11620;SDS011;5866;49.094;11.900;2024-01-15T02:34:50;33.43;;;19.50;;
11620;SDS011;5866;49.094;11.900;2024-01-15T02:37:18;44.60;;;30.30;;
11620;SDS011;5866;49.094;11.900;2024-01-15T02:39:47;33.70;;;30.40;;
11620;SDS011;5866;49.094;11.900;2024-01-15T02:42:16;39.97;;;28.93;;
11620;SDS011;5866;49.094;11.900;2024-01-15T02:44:43;42.07;;;30.17;;
11620;SDS011;5866;49.094;11.900;2024-01-15T02:47:11;39.93;;;25.43;;
11620;SDS011;5866;49.094;11.900;2024-01-15T02:49:38;42.80;;;25.07;;
11620;SDS011;5866;49.094;11.900;2024-01-15T02:52:06;37.23;;;25.77;;
11620;SDS011;5866;49.094;11.900;2024-01-15T02:54:34;60.47;;;54.77;;
11620;SDS011;5866;49.094;11.900;2024-01-15T02:57:01;36.73;;;27.33;;
11620;SDS011;5866;49.094;11.900;2024-01-15T02:59:30;41.77;;;36.90;;
11620;SDS011;5866;49.094;11.900;2024-01-15T03:01:58;43.13;;;28.80;;
11620;SDS011;5866;49.094;11.900;2024-01-15T03:04:25;38.67;;;34.53;;
11620;SDS011;5866;49.094;11.900;2024-01-15T03:06:53;44.23;;;30.77;;
11620;SDS011;5866;49.094;11.900;2024-01-15T03:09:21;47.63;;;43.23;;
11620;SDS011;5866;49.094;11.900;2024-01-15T03:11:49;43.37;;;28.70;;
11620;SDS011;5866;49.094;11.900;2024-01-15T03:14:16;33.10;;;28.90;;
11620;SDS011;5866;49.094;11.900;2024-01-15T03:16:45;40.97;;;36.80;;
11620;SDS011;5866;49.094;11.900;2024-01-15T03:19:12;30.77;;;24.13;;
11620;SDS011;5866;49.094;11.900;2024-01-15T03:21:40;32.50;;;29.00;;
11620;SDS011;5866;49.094;11.900;2024-01-15T03:24:08;45.83;;;36.13;;
11620;SDS011;5866;49.094;11.900;2024-01-15T03:26:35;48.03;;;34.53;;
11620;SDS011;5866;49.094;11.900;2024-01-15T03:29:03;43.90;;;33.77;;
11620;SDS011;5866;49.094;11.900;2024-01-15T03:31:31;38.70;;;28.47;;
11620;SDS011;5866;49.094;11.900;2024-01-15T03:34:00;40.93;;;36.50;;
11620;SDS011;5866;49.094;11.900;2024-01-15T03:36:27;42.77;;;33.73;;
11620;SDS011;5866;49.094;11.900;2024-01-15T03:38:55;40.30;;;31.87;;
11620;SDS011;5866;49.094;11.900;2024-01-15T03:41:22;43.53;;;37.67;;
11620;SDS011;5866;49.094;11.900;2024-01-15T03:43:50;44.93;;;38.87;;
11620;SDS011;5866;49.094;11.900;2024-01-15T03:46:18;34.03;;;28.53;;
11620;SDS011;5866;49.094;11.900;2024-01-15T03:48:45;42.40;;;34.30;;
11620;SDS011;5866;49.094;11.900;2024-01-15T03:51:15;43.53;;;38.90;;
11620;SDS011;5866;49.094;11.900;2024-01-15T03:53:42;45.73;;;40.73;;
11620;SDS011;5866;49.094;11.900;2024-01-15T03:56:10;43.60;;;34.73;;
11620;SDS011;5866;49.094;11.900;2024-01-15T03:58:38;41.37;;;36.93;;
11620;SDS011;5866;49.094;11.900;2024-01-15T04:01:07;44.53;;;37.40;;
11620;SDS011;5866;49.094;11.900;2024-01-15T04:03:35;42.20;;;34.07;;
11620;SDS011;5866;49.094;11.900;2024-01-15T04:06:03;41.67;;;34.07;;
11620;SDS011;5866;49.094;11.900;2024-01-15T04:08:33;45.27;;;36.87;;
11620;SDS011;5866;49.094;11.900;2024-01-15T04:11:00;40.67;;;31.83;;
11620;SDS011;5866;49.094;11.900;2024-01-15T04:13:28;36.07;;;30.27;;
11620;SDS011;5866;49.094;11.900;2024-01-15T04:15:56;40.73;;;31.03;;
11620;SDS011;5866;49.094;11.900;2024-01-15T04:18:23;42.20;;;32.73;;
11620;SDS011;5866;49.094;11.900;2024-01-15T04:20:51;32.13;;;21.60;;
11620;SDS011;5866;49.094;11.900;2024-01-15T04:23:19;35.60;;;30.93;;
11620;SDS011;5866;49.094;11.900;2024-01-15T04:25:47;37.63;;;31.53;;
11620;SDS011;5866;49.094;11.900;2024-01-15T04:28:15;36.50;;;27.80;;
11620;SDS011;5866;49.094;11.900;2024-01-15T04:30:43;31.60;;;22.37;;
11620;SDS011;5866;49.094;11.900;2024-01-15T04:33:10;30.23;;;23.50;;
11620;SDS011;5866;49.094;11.900;2024-01-15T04:35:38;34.90;;;28.93;;
11620;SDS011;5866;49.094;11.900;2024-01-15T04:38:06;34.83;;;31.03;;
11620;SDS011;5866;49.094;11.900;2024-01-15T04:40:33;39.67;;;31.27;;
11620;SDS011;5866;49.094;11.900;2024-01-15T04:43:02;36.63;;;30.37;;
11620;SDS011;5866;49.094;11.900;2024-01-15T04:45:30;36.30;;;31.50;;
11620;SDS011;5866;49.094;11.900;2024-01-15T04:47:57;36.23;;;30.63;;
11620;SDS011;5866;49.094;11.900;2024-01-15T04:50:25;36.73;;;28.83;;
11620;SDS011;5866;49.094;11.900;2024-01-15T04:52:53;32.50;;;27.80;;
11620;SDS011;5866;49.094;11.900;2024-01-15T04:55:20;36.20;;;32.30;;
11620;SDS011;5866;49.094;11.900;2024-01-15T04:57:48;37.23;;;29.43;;
11620;SDS011;5866;49.094;11.900;2024-01-15T05:00:17;32.50;;;27.97;;
11620;SDS011;5866;49.094;11.900;2024-01-15T05:02:45;34.20;;;30.50;;
11620;SDS011;5866;49.094;11.900;2024-01-15T05:05:13;34.33;;;29.40;;
11620;SDS011;5866;49.094;11.900;2024-01-15T05:07:40;32.40;;;27.40;;
11620;SDS011;5866;49.094;11.900;2024-01-15T05:10:08;34.90;;;29.57;;
11620;SDS011;5866;49.094;11.900;2024-01-15T05:12:36;37.50;;;28.73;;
11620;SDS011;5866;49.094;11.900;2024-01-15T05:15:04;30.10;;;26.93;;
11620;SDS011;5866;49.094;11.900;2024-01-15T05:17:33;32.27;;;28.73;;
11620;SDS011;5866;49.094;11.900;2024-01-15T05:20:01;33.13;;;29.57;;
11620;SDS011;5866;49.094;11.900;2024-01-15T05:22:29;35.27;;;31.57;;
11620;SDS011;5866;49.094;11.900;2024-01-15T05:24:57;35.23;;;31.70;;
11620;SDS011;5866;49.094;11.900;2024-01-15T05:27:24;41.20;;;37.23;;
11620;SDS011;5866;49.094;11.900;2024-01-15T05:29:52;47.03;;;42.17;;
11620;SDS011;5866;49.094;11.900;2024-01-15T05:32:20;50.33;;;46.00;;
11620;SDS011;5866;49.094;11.900;2024-01-15T05:34:49;51.90;;;47.47;;
11620;SDS011;5866;49.094;11.900;2024-01-15T05:37:17;59.40;;;54.23;;
11620;SDS011;5866;49.094;11.900;2024-01-15T05:39:44;43.00;;;39.07;;
11620;SDS011;5866;49.094;11.900;2024-01-15T05:42:12;42.67;;;38.63;;
11620;SDS011;5866;49.094;11.900;2024-01-15T05:44:39;45.03;;;40.77;;
11620;SDS011;5866;49.094;11.900;2024-01-15T05:47:06;36.57;;;33.07;;
11620;SDS011;5866;49.094;11.900;2024-01-15T05:49:35;44.00;;;40.07;;
11620;SDS011;5866;49.094;11.900;2024-01-15T05:52:04;52.90;;;48.43;;
11620;SDS011;5866;49.094;11.900;2024-01-15T05:54:32;63.10;;;57.90;;
11620;SDS011;5866;49.094;11.900;2024-01-15T05:56:59;77.50;;;71.87;;
11620;SDS011;5866;49.094;11.900;2024-01-15T05:59:27;84.50;;;78.17;;
11620;SDS011;5866;49.094;11.900;2024-01-15T06:01:58;76.30;;;70.50;;
11620;SDS011;5866;49.094;11.900;2024-01-15T06:04:25;91.40;;;85.07;;
11620;SDS011;5866;49.094;11.900;2024-01-15T06:06:53;78.50;;;72.60;;
11620;SDS011;5866;49.094;11.900;2024-01-15T06:09:22;56.57;;;52.00;;
11620;SDS011;5866;49.094;11.900;2024-01-15T06:11:50;36.60;;;32.43;;
11620;SDS011;5866;49.094;11.900;2024-01-15T06:14:17;40.13;;;36.27;;
11620;SDS011;5866;49.094;11.900;2024-01-15T06:16:45;38.40;;;34.57;;
11620;SDS011;5866;49.094;11.900;2024-01-15T06:19:13;38.27;;;34.93;;
11620;SDS011;5866;49.094;11.900;2024-01-15T06:21:40;39.83;;;36.00;;
11620;SDS011;5866;49.094;11.900;2024-01-15T06:24:08;41.40;;;37.60;;
11620;SDS011;5866;49.094;11.900;2024-01-15T06:26:37;33.37;;;29.83;;
11620;SDS011;5866;49.094;11.900;2024-01-15T06:29:05;37.33;;;33.63;;
11620;SDS011;5866;49.094;11.900;2024-01-15T06:31:33;29.33;;;24.70;;
11620;SDS011;5866;49.094;11.900;2024-01-15T06:34:01;30.97;;;27.90;;
11620;SDS011;5866;49.094;11.900;2024-01-15T06:36:28;28.60;;;25.53;;
11620;SDS011;5866;49.094;11.900;2024-01-15T06:38:56;29.83;;;26.80;;
11620;SDS011;5866;49.094;11.900;2024-01-15T06:41:23;29.20;;;25.77;;
11620;SDS011;5866;49.094;11.900;2024-01-15T06:43:53;24.27;;;19.90;;
11620;SDS011;5866;49.094;11.900;2024-01-15T06:46:22;25.20;;;20.27;;
11620;SDS011;5866;49.094;11.900;2024-01-15T06:48:50;24.83;;;21.13;;
11620;SDS011;5866;49.094;11.900;2024-01-15T06:51:17;25.00;;;21.83;;
11620;SDS011;5866;49.094;11.900;2024-01-15T06:53:45;23.43;;;20.47;;
11620;SDS011;5866;49.094;11.900;2024-01-15T06:56:13;22.50;;;16.93;;
11620;SDS011;5866;49.094;11.900;2024-01-15T06:58:40;22.80;;;17.53;;
11620;SDS011;5866;49.094;11.900;2024-01-15T07:01:09;24.17;;;18.33;;
11620;SDS011;5866;49.094;11.900;2024-01-15T07:03:37;21.63;;;17.70;;
11620;SDS011;5866;49.094;11.900;2024-01-15T07:06:05;20.57;;;16.53;;
11620;SDS011;5866;49.094;11.900;2024-01-15T07:08:32;23.00;;;20.27;;
11620;SDS011;5866;49.094;11.900;2024-01-15T07:11:03;23.97;;;21.47;;
11620;SDS011;5866;49.094;11.900;2024-01-15T07:13:30;23.23;;;19.07;;
11620;SDS011;5866;49.094;11.900;2024-01-15T07:15:58;22.40;;;19.70;;
11620;SDS011;5866;49.094;11.900;2024-01-15T07:18:27;22.03;;;19.83;;
11620;SDS011;5866;49.094;11.900;2024-01-15T07:20:55;19.67;;;17.40;;
11620;SDS011;5866;49.094;11.900;2024-01-15T07:23:22;22.00;;;19.63;;
11620;SDS011;5866;49.094;11.900;2024-01-15T07:25:53;22.10;;;16.03;;
11620;SDS011;5866;49.094;11.900;2024-01-15T07:28:21;21.07;;;16.10;;
11620;SDS011;5866;49.094;11.900;2024-01-15T07:30:48;17.27;;;13.97;;
11620;SDS011;5866;49.094;11.900;2024-01-15T07:33:16;17.27;;;14.50;;
11620;SDS011;5866;49.094;11.900;2024-01-15T07:35:45;17.03;;;14.57;;
11620;SDS011;5866;49.094;11.900;2024-01-15T07:38:13;17.90;;;13.97;;
11620;SDS011;5866;49.094;11.900;2024-01-15T07:40:40;14.93;;;10.33;;
11620;SDS011;5866;49.094;11.900;2024-01-15T07:43:08;23.93;;;21.77;;
11620;SDS011;5866;49.094;11.900;2024-01-15T07:45:35;30.37;;;27.70;;
11620;SDS011;5866;49.094;11.900;2024-01-15T07:48:03;32.57;;;29.87;;
11620;SDS011;5866;49.094;11.900;2024-01-15T07:50:31;23.10;;;21.13;;
11620;SDS011;5866;49.094;11.900;2024-01-15T07:53:00;25.30;;;23.20;;
11620;SDS011;5866;49.094;11.900;2024-01-15T07:55:28;35.90;;;33.27;;
11620;SDS011;5866;49.094;11.900;2024-01-15T07:57:55;36.60;;;34.00;;
11620;SDS011;5866;49.094;11.900;2024-01-15T08:00:40;18.80;;;17.00;;
11620;SDS011;5866;49.094;11.900;2024-01-15T08:03:08;17.70;;;16.07;;
11620;SDS011;5866;49.094;11.900;2024-01-15T08:05:35;16.10;;;13.33;;
11620;SDS011;5866;49.094;11.900;2024-01-15T08:08:05;19.77;;;17.93;;
11620;SDS011;5866;49.094;11.900;2024-01-15T08:10:33;19.30;;;17.40;;
11620;SDS011;5866;49.094;11.900;2024-01-15T08:13:00;35.37;;;32.63;;
11620;SDS011;5866;49.094;11.900;2024-01-15T08:15:28;29.47;;;26.97;;
11620;SDS011;5866;49.094;11.900;2024-01-15T08:17:57;27.73;;;25.23;;
11620;SDS011;5866;49.094;11.900;2024-01-15T08:20:25;29.57;;;27.37;;
11620;SDS011;5866;49.094;11.900;2024-01-15T08:22:53;28.57;;;26.37;;
11620;SDS011;5866;49.094;11.900;2024-01-15T08:25:22;32.20;;;29.60;;
11620;SDS011;5866;49.094;11.900;2024-01-15T08:27:49;26.23;;;23.73;;
11620;SDS011;5866;49.094;11.900;2024-01-15T08:30:17;25.30;;;23.50;;
11620;SDS011;5866;49.094;11.900;2024-01-15T08:32:46;37.97;;;35.20;;
11620;SDS011;5866;49.094;11.900;2024-01-15T08:35:14;34.53;;;31.97;;
11620;SDS011;5866;49.094;11.900;2024-01-15T08:37:42;11.57;;;10.57;;
11620;SDS011;5866;49.094;11.900;2024-01-15T08:40:10;12.27;;;11.07;;
11620;SDS011;5866;49.094;11.900;2024-01-15T08:42:39;10.03;;;8.97;;
11620;SDS011;5866;49.094;11.900;2024-01-15T08:45:07;11.70;;;10.50;;
11620;SDS011;5866;49.094;11.900;2024-01-15T08:47:35;12.37;;;11.17;;
11620;SDS011;5866;49.094;11.900;2024-01-15T08:50:03;9.73;;;8.73;;
11620;SDS011;5866;49.094;11.900;2024-01-15T08:52:31;9.73;;;8.40;;
11620;SDS011;5866;49.094;11.900;2024-01-15T08:54:59;12.90;;;10.80;;
11620;SDS011;5866;49.094;11.900;2024-01-15T08:57:27;10.47;;;9.40;;
11620;SDS011;5866;49.094;11.900;2024-01-15T08:59:56;9.90;;;8.83;;
11620;SDS011;5866;49.094;11.900;2024-01-15T09:02:24;11.87;;;10.07;;
11620;SDS011;5866;49.094;11.900;2024-01-15T09:04:52;12.30;;;8.33;;
11620;SDS011;5866;49.094;11.900;2024-01-15T09:07:19;8.47;;;7.77;;
11620;SDS011;5866;49.094;11.900;2024-01-15T09:09:47;10.23;;;7.40;;
11620;SDS011;5866;49.094;11.900;2024-01-15T09:12:15;9.60;;;8.20;;
11620;SDS011;5866;49.094;11.900;2024-01-15T09:14:44;11.97;;;10.50;;
11620;SDS011;5866;49.094;11.900;2024-01-15T09:17:13;11.93;;;10.53;;
11620;SDS011;5866;49.094;11.900;2024-01-15T09:19:41;11.63;;;9.30;;
11620;SDS011;5866;49.094;11.900;2024-01-15T09:22:09;11.93;;;9.10;;
11620;SDS011;5866;49.094;11.900;2024-01-15T09:24:36;12.13;;;10.67;;
11620;SDS011;5866;49.094;11.900;2024-01-15T09:27:04;9.50;;;7.93;;
11620;SDS011;5866;49.094;11.900;2024-01-15T09:29:32;11.17;;;8.20;;
11620;SDS011;5866;49.094;11.900;2024-01-15T09:31:59;10.23;;;8.80;;
11620;SDS011;5866;49.094;11.900;2024-01-15T09:34:30;10.97;;;9.33;;
11620;SDS011;5866;49.094;11.900;2024-01-15T09:36:58;11.93;;;10.73;;
11620;SDS011;5866;49.094;11.900;2024-01-15T09:39:26;11.80;;;10.60;;
11620;SDS011;5866;49.094;11.900;2024-01-15T09:41:54;11.53;;;10.03;;
11620;SDS011;5866;49.094;11.900;2024-01-15T09:44:22;10.63;;;9.53;;
11620;SDS011;5866;49.094;11.900;2024-01-15T09:46:50;13.93;;;12.80;;
11620;SDS011;5866;49.094;11.900;2024-01-15T09:49:19;11.47;;;10.30;;
11620;SDS011;5866;49.094;11.900;2024-01-15T09:51:48;11.57;;;9.17;;
11620;SDS011;5866;49.094;11.900;2024-01-15T09:54:31;12.63;;;10.57;;
11620;SDS011;5866;49.094;11.900;2024-01-15T09:56:59;11.27;;;10.17;;
11620;SDS011;5866;49.094;11.900;2024-01-15T09:59:28;9.43;;;7.93;;
11620;SDS011;5866;49.094;11.900;2024-01-15T10:01:55;12.33;;;8.57;;
11620;SDS011;5866;49.094;11.900;2024-01-15T10:04:26;12.37;;;8.33;;
11620;SDS011;5866;49.094;11.900;2024-01-15T10:06:55;10.23;;;7.30;;
11620;SDS011;5866;49.094;11.900;2024-01-15T10:09:25;12.43;;;7.60;;
11620;SDS011;5866;49.094;11.900;2024-01-15T10:11:52;11.67;;;6.47;;
11620;SDS011;5866;49.094;11.900;2024-01-15T10:14:21;10.30;;;7.23;;
11620;SDS011;5866;49.094;11.900;2024-01-15T10:16:48;13.13;;;7.80;;
11620;SDS011;5866;49.094;11.900;2024-01-15T10:19:16;11.67;;;7.40;;
11620;SDS011;5866;49.094;11.900;2024-01-15T10:21:44;9.60;;;7.63;;
11620;SDS011;5866;49.094;11.900;2024-01-15T10:24:14;11.43;;;7.73;;
11620;SDS011;5866;49.094;11.900;2024-01-15T10:26:42;10.67;;;7.80;;
11620;SDS011;5866;49.094;11.900;2024-01-15T10:29:10;13.17;;;7.70;;
11620;SDS011;5866;49.094;11.900;2024-01-15T10:31:38;12.37;;;10.07;;
11620;SDS011;5866;49.094;11.900;2024-01-15T10:34:12;11.97;;;10.70;;
11620;SDS011;5866;49.094;11.900;2024-01-15T10:36:42;10.43;;;9.33;;
11620;SDS011;5866;49.094;11.900;2024-01-15T10:39:20;10.20;;;9.20;;
11620;SDS011;5866;49.094;11.900;2024-01-15T10:41:47;13.80;;;8.67;;
11620;SDS011;5866;49.094;11.900;2024-01-15T10:44:15;12.13;;;8.23;;
11620;SDS011;5866;49.094;11.900;2024-01-15T10:46:43;12.13;;;9.53;;
11620;SDS011;5866;49.094;11.900;2024-01-15T10:49:11;11.80;;;10.80;;
11620;SDS011;5866;49.094;11.900;2024-01-15T10:51:39;12.33;;;11.10;;
11620;SDS011;5866;49.094;11.900;2024-01-15T10:54:09;15.17;;;13.87;;
11620;SDS011;5866;49.094;11.900;2024-01-15T10:56:39;11.87;;;10.67;;
11620;SDS011;5866;49.094;11.900;2024-01-15T10:59:08;8.20;;;5.10;;
11620;SDS011;5866;49.094;11.900;2024-01-15T11:01:38;6.70;;;4.73;;
11620;SDS011;5866;49.094;11.900;2024-01-15T11:04:05;7.37;;;4.63;;
11620;SDS011;5866;49.094;11.900;2024-01-15T11:06:40;6.13;;;4.93;;
11620;SDS011;5866;49.094;11.900;2024-01-15T11:09:10;4.60;;;4.20;;
11620;SDS011;5866;49.094;11.900;2024-01-15T11:11:43;6.50;;;4.67;;
11620;SDS011;5866;49.094;11.900;2024-01-15T11:14:11;6.07;;;4.63;;
11620;SDS011;5866;49.094;11.900;2024-01-15T11:16:58;6.27;;;4.80;;
11620;SDS011;5866;49.094;11.900;2024-01-15T11:19:27;5.83;;;4.83;;
11620;SDS011;5866;49.094;11.900;2024-01-15T11:22:03;8.23;;;5.43;;
11620;SDS011;5866;49.094;11.900;2024-01-15T11:24:36;7.10;;;6.50;;
11620;SDS011;5866;49.094;11.900;2024-01-15T11:27:06;6.70;;;4.73;;
11620;SDS011;5866;49.094;11.900;2024-01-15T11:29:35;6.07;;;5.20;;
11620;SDS011;5866;49.094;11.900;2024-01-15T11:32:07;8.90;;;6.20;;
11620;SDS011;5866;49.094;11.900;2024-01-15T11:34:49;5.57;;;4.87;;
11620;SDS011;5866;49.094;11.900;2024-01-15T11:37:17;6.90;;;5.47;;
11620;SDS011;5866;49.094;11.900;2024-01-15T11:39:46;7.10;;;5.53;;
11620;SDS011;5866;49.094;11.900;2024-01-15T11:42:15;5.70;;;4.50;;
11620;SDS011;5866;49.094;11.900;2024-01-15T11:44:45;6.47;;;5.33;;
11620;SDS011;5866;49.094;11.900;2024-01-15T11:47:12;8.00;;;5.27;;
11620;SDS011;5866;49.094;11.900;2024-01-15T11:50:00;7.60;;;4.93;;
11620;SDS011;5866;49.094;11.900;2024-01-15T11:52:32;6.70;;;5.07;;
11620;SDS011;5866;49.094;11.900;2024-01-15T11:55:01;6.40;;;4.33;;
11620;SDS011;5866;49.094;11.900;2024-01-15T11:57:41;6.20;;;4.30;;
11620;SDS011;5866;49.094;11.900;2024-01-15T12:00:13;6.83;;;5.17;;
11620;SDS011;5866;49.094;11.900;2024-01-15T12:02:41;7.10;;;5.23;;
11620;SDS011;5866;49.094;11.900;2024-01-15T12:05:09;7.90;;;6.00;;
11620;SDS011;5866;49.094;11.900;2024-01-15T12:07:39;7.57;;;5.70;;
11620;SDS011;5866;49.094;11.900;2024-01-15T12:10:10;5.03;;;4.53;;
11620;SDS011;5866;49.094;11.900;2024-01-15T12:12:47;8.73;;;7.93;;
11620;SDS011;5866;49.094;11.900;2024-01-15T12:15:22;5.60;;;4.30;;
11620;SDS011;5866;49.094;11.900;2024-01-15T12:17:50;5.93;;;4.47;;
11620;SDS011;5866;49.094;11.900;2024-01-15T12:20:18;5.87;;;4.70;;
11620;SDS011;5866;49.094;11.900;2024-01-15T12:22:46;6.70;;;5.40;;
11620;SDS011;5866;49.094;11.900;2024-01-15T12:25:26;6.87;;;6.27;;
11620;SDS011;5866;49.094;11.900;2024-01-15T12:27:57;6.90;;;6.10;;
11620;SDS011;5866;49.094;11.900;2024-01-15T12:30:25;8.57;;;7.67;;
11620;SDS011;5866;49.094;11.900;2024-01-15T12:32:53;8.97;;;7.53;;
11620;SDS011;5866;49.094;11.900;2024-01-15T12:35:23;8.83;;;7.93;;
11620;SDS011;5866;49.094;11.900;2024-01-15T12:37:52;8.07;;;6.17;;
11620;SDS011;5866;49.094;11.900;2024-01-15T12:40:22;8.37;;;7.00;;
11620;SDS011;5866;49.094;11.900;2024-01-15T12:42:51;8.23;;;7.17;;
11620;SDS011;5866;49.094;11.900;2024-01-15T12:45:20;6.73;;;5.87;;
11620;SDS011;5866;49.094;11.900;2024-01-15T12:47:48;7.97;;;7.20;;
11620;SDS011;5866;49.094;11.900;2024-01-15T12:50:17;7.53;;;5.07;;
11620;SDS011;5866;49.094;11.900;2024-01-15T12:52:46;5.10;;;4.60;;
11620;SDS011;5866;49.094;11.900;2024-01-15T12:55:14;9.70;;;7.97;;
11620;SDS011;5866;49.094;11.900;2024-01-15T12:57:42;8.87;;;8.07;;
11620;SDS011;5866;49.094;11.900;2024-01-15T13:00:12;9.27;;;8.23;;
11620;SDS011;5866;49.094;11.900;2024-01-15T13:02:42;5.73;;;4.93;;
11620;SDS011;5866;49.094;11.900;2024-01-15T13:05:10;6.13;;;4.70;;
11620;SDS011;5866;49.094;11.900;2024-01-15T13:07:40;5.43;;;4.27;;
11620;SDS011;5866;49.094;11.900;2024-01-15T13:10:09;9.30;;;6.07;;
11620;SDS011;5866;49.094;11.900;2024-01-15T13:12:38;9.47;;;8.57;;
11620;SDS011;5866;49.094;11.900;2024-01-15T13:15:08;9.97;;;8.80;;
11620;SDS011;5866;49.094;11.900;2024-01-15T13:17:40;11.40;;;9.73;;
11620;SDS011;5866;49.094;11.900;2024-01-15T13:20:10;8.73;;;7.83;;
11620;SDS011;5866;49.094;11.900;2024-01-15T13:22:39;7.87;;;6.97;;
11620;SDS011;5866;49.094;11.900;2024-01-15T13:25:10;7.03;;;5.70;;
11620;SDS011;5866;49.094;11.900;2024-01-15T13:27:37;14.73;;;5.90;;
11620;SDS011;5866;49.094;11.900;2024-01-15T13:30:07;6.90;;;4.97;;
11620;SDS011;5866;49.094;11.900;2024-01-15T13:32:35;7.03;;;5.40;;
11620;SDS011;5866;49.094;11.900;2024-01-15T13:35:05;8.13;;;5.70;;
11620;SDS011;5866;49.094;11.900;2024-01-15T13:37:36;6.43;;;4.70;;
11620;SDS011;5866;49.094;11.900;2024-01-15T13:40:04;8.87;;;6.63;;
11620;SDS011;5866;49.094;11.900;2024-01-15T13:42:34;6.53;;;5.43;;
11620;SDS011;5866;49.094;11.900;2024-01-15T13:45:04;8.80;;;5.80;;
11620;SDS011;5866;49.094;11.900;2024-01-15T13:47:33;5.80;;;4.87;;
11620;SDS011;5866;49.094;11.900;2024-01-15T13:50:01;7.50;;;5.03;;
11620;SDS011;5866;49.094;11.900;2024-01-15T13:52:30;6.50;;;5.03;;
11620;SDS011;5866;49.094;11.900;2024-01-15T13:54:57;7.30;;;5.33;;
11620;SDS011;5866;49.094;11.900;2024-01-15T13:57:25;6.77;;;4.73;;
11620;SDS011;5866;49.094;11.900;2024-01-15T13:59:53;8.47;;;5.77;;
11620;SDS011;5866;49.094;11.900;2024-01-15T14:02:21;5.83;;;4.97;;
11620;SDS011;5866;49.094;11.900;2024-01-15T14:04:50;7.60;;;5.33;;
11620;SDS011;5866;49.094;11.900;2024-01-15T14:07:18;6.87;;;5.53;;
11620;SDS011;5866;49.094;11.900;2024-01-15T14:09:47;6.83;;;5.43;;
11620;SDS011;5866;49.094;11.900;2024-01-15T14:12:15;8.00;;;5.43;;
11620;SDS011;5866;49.094;11.900;2024-01-15T14:14:42;10.00;;;6.03;;
11620;SDS011;5866;49.094;11.900;2024-01-15T14:17:10;8.07;;;5.97;;
11620;SDS011;5866;49.094;11.900;2024-01-15T14:19:38;9.53;;;7.43;;
11620;SDS011;5866;49.094;11.900;2024-01-15T14:22:05;7.57;;;6.83;;
11620;SDS011;5866;49.094;11.900;2024-01-15T14:24:33;10.83;;;9.80;;
11620;SDS011;5866;49.094;11.900;2024-01-15T14:27:02;9.17;;;8.07;;
11620;SDS011;5866;49.094;11.900;2024-01-15T14:29:31;9.37;;;8.50;;
11620;SDS011;5866;49.094;11.900;2024-01-15T14:31:59;11.03;;;9.70;;
11620;SDS011;5866;49.094;11.900;2024-01-15T14:34:27;9.00;;;8.17;;
11620;SDS011;5866;49.094;11.900;2024-01-15T14:36:55;9.60;;;8.70;;